Time;durP1;ratioP1;P1;durP2;ratioP2;P2;SDS_P1;SDS_P2;PMS_P1;PMS_P2;Temp;Humidity;BMP_temperature;BMP_pressure;BME280_temperature;BME280_humidity;BME280_pressure;Samples;Min_cycle;Max_cycle;Signal;HPM_P1;HPM_P2
2022/01/12 00:02:18;;;;;;;8.20;5.05;;;1.00;99.90;;;;;;4932128;28;20030;-86
2022/01/12 00:04:43;;;;;;;9.80;5.35;;;1.10;99.90;;;;;;4945532;28;20112;-86
2022/01/12 00:07:09;;;;;;;7.38;4.65;;;1.00;99.90;;;;;;4934342;28;20058;-86
2022/01/12 00:09:34;;;;;;;12.88;4.95;;;1.10;99.90;;;;;;4945326;28;20492;-85
2022/01/12 00:12:00;;;;;;;7.50;4.68;;;1.20;99.90;;;;;;4934847;28;20389;-86
2022/01/12 00:14:27;;;;;;;9.15;4.80;;;1.30;99.90;;;;;;4931432;28;20168;-86
2022/01/12 00:16:58;;;;;;;12.20;5.47;;;1.20;99.90;;;;;;4933950;28;20039;-86
2022/01/12 00:19:25;;;;;;;12.85;6.15;;;1.10;99.90;;;;;;4925178;28;20046;-86
2022/01/12 00:21:51;;;;;;;13.50;5.53;;;1.10;99.90;;;;;;4929866;28;20054;-86
2022/01/12 00:24:16;;;;;;;6.80;4.38;;;1.10;99.90;;;;;;4932314;28;20034;-86
2022/01/12 00:33:08;;;;;;;10.50;5.22;;;1.10;99.90;;;;;;4934221;28;20027;-86
2022/01/12 00:34:56;;;;;;;9.95;5.40;;;1.20;99.90;;;;;;4936844;28;20034;-87
2022/01/12 00:37:21;;;;;;;13.32;5.35;;;1.20;99.90;;;;;;4930713;28;20198;-86
2022/01/12 00:39:47;;;;;;;10.32;5.13;;;1.10;99.90;;;;;;4938243;28;20535;-86
2022/01/12 00:42:13;;;;;;;8.40;5.05;;;1.20;99.90;;;;;;4944062;28;20034;-86
2022/01/12 00:44:44;;;;;;;8.88;4.18;;;1.20;99.90;;;;;;4930216;28;20035;-85
2022/01/12 00:47:09;;;;;;;10.38;4.57;;;1.20;99.90;;;;;;4930627;28;20043;-85
2022/01/12 00:49:35;;;;;;;8.77;4.57;;;1.20;99.90;;;;;;4924092;28;20035;-86
2022/01/12 00:52:01;;;;;;;10.07;4.25;;;1.20;99.90;;;;;;4924148;28;20138;-85
2022/01/12 00:54:26;;;;;;;6.65;4.20;;;1.10;99.90;;;;;;4932319;28;20034;-86
2022/01/12 00:56:52;;;;;;;8.07;4.68;;;1.10;99.90;;;;;;4930679;28;20051;-85
2022/01/12 00:59:17;;;;;;;6.20;3.42;;;1.20;99.90;;;;;;4930921;28;20491;-85
2022/01/12 01:01:43;;;;;;;9.65;4.60;;;1.30;99.90;;;;;;4938130;28;20037;-85
2022/01/12 01:04:09;;;;;;;6.68;3.75;;;1.30;99.90;;;;;;4945544;28;20039;-85
2022/01/12 01:06:36;;;;;;;7.22;4.68;;;1.20;99.90;;;;;;4927839;28;20506;-85
2022/01/12 01:09:01;;;;;;;7.90;4.38;;;1.20;99.90;;;;;;4934699;28;21041;-85
2022/01/12 01:11:27;;;;;;;9.27;4.47;;;1.10;99.90;;;;;;4930331;28;20118;-85
2022/01/12 01:14:01;;;;;;;8.00;4.00;;;1.20;99.90;;;;;;4916565;28;20043;-85
2022/01/12 01:27:07;;;;;;;8.80;4.68;;;1.30;99.90;;;;;;4946929;28;20538;-87
2022/01/12 01:29:32;;;;;;;6.75;4.13;;;1.40;99.90;;;;;;4926761;28;20031;-86
2022/01/12 01:31:58;;;;;;;7.07;3.95;;;1.30;99.90;;;;;;4930463;28;20023;-85
2022/01/12 01:34:26;;;;;;;6.25;3.83;;;1.40;99.90;;;;;;4927408;28;20026;-86
2022/01/12 01:36:53;;;;;;;8.70;4.95;;;1.50;99.90;;;;;;4929378;28;20039;-86
2022/01/12 01:39:20;;;;;;;8.27;3.92;;;1.50;99.90;;;;;;4925896;28;20035;-86
2022/01/12 01:41:53;;;;;;;10.90;3.28;;;1.40;99.90;;;;;;4934144;28;20027;-86
2022/01/12 01:55:06;;;;;;;7.85;2.90;;;1.60;99.90;;;;;;4954866;28;20034;-86
2022/01/12 01:57:33;;;;;;;9.82;4.20;;;1.60;99.90;;;;;;4939977;28;20032;-86
2022/01/12 01:59:59;;;;;;;6.10;3.42;;;1.70;99.90;;;;;;4932643;28;20046;-86
2022/01/12 02:02:25;;;;;;;4.75;1.90;;;1.70;99.90;;;;;;4928264;28;20034;-86
2022/01/12 02:04:50;;;;;;;6.55;3.63;;;1.80;99.90;;;;;;4925533;28;20194;-86
2022/01/12 02:07:16;;;;;;;5.72;3.38;;;1.80;99.90;;;;;;4928803;28;20396;-86
2022/01/12 02:09:41;;;;;;;7.05;2.38;;;1.80;99.90;;;;;;4944220;28;20043;-86
2022/01/12 02:12:08;;;;;;;4.95;2.22;;;1.80;99.90;;;;;;4928044;28;20055;-87
2022/01/12 02:14:35;;;;;;;5.65;2.78;;;1.80;99.90;;;;;;4939303;28;20506;-87
2022/01/12 02:17:07;;;;;;;6.75;3.20;;;1.80;99.90;;;;;;4929458;28;20027;-86
2022/01/12 02:36:09;;;;;;;7.00;3.60;;;2.00;99.90;;;;;;4931264;28;20514;-86
2022/01/12 02:41:01;;;;;;;7.25;3.15;;;1.90;99.90;;;;;;4929549;28;20034;-86
2022/01/12 02:51:34;;;;;;;7.20;3.28;;;1.90;99.90;;;;;;4946853;28;20086;-86
2022/01/12 02:53:59;;;;;;;6.68;3.42;;;1.90;99.90;;;;;;4926113;28;20482;-85
2022/01/12 02:56:27;;;;;;;6.95;3.63;;;2.00;99.90;;;;;;4903110;28;20039;-86
2022/01/12 02:58:55;;;;;;;7.93;3.88;;;2.00;99.90;;;;;;4927435;28;20031;-86
2022/01/12 03:03:49;;;;;;;8.50;3.83;;;2.10;99.90;;;;;;4928009;28;20045;-86
2022/01/12 03:06:18;;;;;;;6.78;3.80;;;2.10;99.90;;;;;;4937845;28;20443;-86
2022/01/12 03:08:44;;;;;;;5.00;3.13;;;2.10;99.90;;;;;;4924136;28;20042;-85
2022/01/12 03:11:12;;;;;;;4.45;2.70;;;2.10;99.90;;;;;;4928990;28;20042;-85
2022/01/12 03:13:38;;;;;;;10.30;4.00;;;2.00;99.90;;;;;;4908891;28;20447;-86
2022/01/12 03:16:14;;;;;;;7.32;3.47;;;2.00;99.90;;;;;;4939616;28;20034;-85
2022/01/12 03:18:40;;;;;;;8.50;3.83;;;2.00;99.90;;;;;;4936986;28;20107;-86
2022/01/12 03:21:06;;;;;;;10.50;4.43;;;2.10;99.90;;;;;;4913191;28;20051;-86
2022/01/12 03:23:32;;;;;;;11.27;3.95;;;2.10;99.90;;;;;;4930924;28;20394;-87
2022/01/12 03:25:58;;;;;;;10.40;5.10;;;2.10;99.90;;;;;;4932000;28;20039;-86
2022/01/12 03:28:23;;;;;;;8.32;4.65;;;2.10;99.90;;;;;;4943502;28;20035;-86
2022/01/12 03:30:54;;;;;;;7.82;3.80;;;2.10;99.90;;;;;;4958297;28;20059;-85
2022/01/12 03:36:25;;;;;;;7.88;3.35;;;2.10;99.90;;;;;;4945515;28;20037;-86
2022/01/12 03:38:53;;;;;;;15.25;3.15;;;2.10;99.90;;;;;;4933654;28;20031;-86
2022/01/12 03:41:19;;;;;;;5.65;3.85;;;2.10;99.90;;;;;;4931998;28;20514;-86
2022/01/12 03:43:45;;;;;;;10.57;5.88;;;2.10;99.90;;;;;;4945742;28;20036;-86
2022/01/12 03:46:11;;;;;;;10.82;4.90;;;2.10;99.90;;;;;;4940961;28;20446;-86
2022/01/12 03:48:36;;;;;;;10.75;4.47;;;2.10;99.90;;;;;;4930988;28;20039;-86
2022/01/12 03:51:02;;;;;;;10.73;5.05;;;2.20;99.90;;;;;;4934091;28;20065;-86
2022/01/12 03:53:28;;;;;;;9.27;3.47;;;2.20;99.90;;;;;;4931963;28;20129;-86
2022/01/12 03:55:53;;;;;;;6.82;3.63;;;2.20;99.90;;;;;;4928498;28;20043;-85
2022/01/12 03:58:19;;;;;;;9.55;4.90;;;2.30;99.90;;;;;;4929318;28;20039;-86
2022/01/12 04:00:44;;;;;;;9.60;4.22;;;2.20;99.90;;;;;;4927898;28;20423;-86
2022/01/12 04:03:10;;;;;;;7.32;4.65;;;2.30;99.90;;;;;;4931521;28;20030;-86
2022/01/12 04:08:20;;;;;;;10.27;4.35;;;2.30;99.90;;;;;;4941751;28;20058;-86
2022/01/12 04:10:57;;;;;;;8.27;4.22;;;2.20;99.90;;;;;;4930522;28;20089;-86
2022/01/12 04:13:24;;;;;;;9.40;4.15;;;2.30;99.90;;;;;;4924496;28;20039;-86
2022/01/12 04:15:52;;;;;;;7.95;4.13;;;2.30;99.90;;;;;;4941907;28;20114;-85
2022/01/12 04:18:18;;;;;;;6.10;4.07;;;2.30;99.90;;;;;;4944320;28;20070;-85
2022/01/12 04:20:49;;;;;;;9.13;4.78;;;2.40;99.90;;;;;;4915429;28;20031;-85
2022/01/12 04:23:18;;;;;;;9.73;4.75;;;2.30;99.90;;;;;;4931842;28;20396;-86
2022/01/12 04:25:47;;;;;;;9.27;4.47;;;2.30;99.90;;;;;;4930056;28;20035;-86
2022/01/12 04:28:12;;;;;;;8.45;4.60;;;2.40;99.90;;;;;;4935448;28;20034;-85
2022/01/12 04:30:38;;;;;;;10.05;5.00;;;2.40;99.90;;;;;;4927394;28;20476;-85
2022/01/12 04:33:04;;;;;;;11.23;5.03;;;2.40;99.90;;;;;;4927803;28;20046;-85
2022/01/12 04:35:33;;;;;;;6.75;4.50;;;2.40;99.90;;;;;;4931044;28;20042;-85
2022/01/12 04:37:59;;;;;;;8.32;4.80;;;2.40;99.90;;;;;;4933034;28;20031;-86
2022/01/12 04:40:25;;;;;;;9.07;5.20;;;2.40;99.90;;;;;;4944107;28;20487;-86
2022/01/12 04:42:53;;;;;;;11.55;5.85;;;2.40;99.90;;;;;;4943250;28;20772;-85
2022/01/12 04:45:40;;;;;;;10.38;5.32;;;2.50;99.90;;;;;;4932845;28;20050;-86
2022/01/12 04:50:42;;;;;;;8.73;5.13;;;2.50;99.90;;;;;;4931625;28;20424;-86
2022/01/12 04:53:08;;;;;;;10.27;4.72;;;2.50;99.90;;;;;;4917860;28;20089;-85
2022/01/12 04:55:34;;;;;;;9.38;5.00;;;2.50;99.90;;;;;;4930394;28;20134;-85
2022/01/12 04:58:00;;;;;;;9.50;5.72;;;2.50;99.90;;;;;;4931980;28;20035;-85
2022/01/12 05:00:26;;;;;;;9.52;4.90;;;2.50;99.90;;;;;;4932671;28;20046;-86
2022/01/12 05:13:38;;;;;;;11.38;5.50;;;2.60;99.90;;;;;;4944848;28;20093;-85
2022/01/12 05:16:04;;;;;;;9.43;4.55;;;2.60;99.90;;;;;;4938434;28;20548;-85
2022/01/12 05:18:30;;;;;;;13.35;6.18;;;2.60;99.90;;;;;;4942586;28;20038;-85
2022/01/12 05:20:56;;;;;;;8.20;4.75;;;2.60;99.90;;;;;;4953725;28;20031;-85
2022/01/12 05:23:21;;;;;;;11.98;4.65;;;2.60;99.90;;;;;;4928070;28;20563;-86
2022/01/12 05:25:47;;;;;;;8.07;5.13;;;2.60;99.90;;;;;;4930252;28;20026;-87
2022/01/12 05:28:13;;;;;;;10.18;4.88;;;2.60;99.90;;;;;;4931316;28;20030;-86
2022/01/12 05:30:39;;;;;;;9.75;5.88;;;2.60;99.90;;;;;;4925742;28;20043;-85
2022/01/12 05:33:04;;;;;;;11.77;5.45;;;2.60;99.90;;;;;;4931370;28;20089;-85
2022/01/12 05:35:34;;;;;;;8.30;5.15;;;2.60;99.90;;;;;;4944905;28;20105;-85
2022/01/12 05:38:03;;;;;;;10.55;4.88;;;2.60;99.90;;;;;;4927195;28;20038;-85
2022/01/12 05:40:29;;;;;;;9.93;5.63;;;2.70;99.90;;;;;;4946268;28;20039;-85
2022/01/12 05:42:56;;;;;;;9.32;5.07;;;2.70;99.90;;;;;;4927624;28;20046;-85
2022/01/12 05:45:22;;;;;;;15.82;7.05;;;2.70;99.90;;;;;;4930694;28;20047;-85
2022/01/12 05:50:14;;;;;;;10.25;5.72;;;2.60;99.90;;;;;;4936903;28;20066;-86
2022/01/12 05:52:40;;;;;;;11.15;5.68;;;2.60;99.90;;;;;;4942900;28;20058;-85
2022/01/12 05:55:06;;;;;;;10.13;5.82;;;2.60;99.90;;;;;;4928106;28;20086;-85
2022/01/12 05:57:32;;;;;;;7.93;5.25;;;2.60;99.90;;;;;;4940040;28;20035;-85
2022/01/12 05:59:58;;;;;;;10.45;5.38;;;2.60;99.90;;;;;;4929371;28;20039;-85
2022/01/12 06:02:24;;;;;;;10.57;5.13;;;2.70;99.90;;;;;;4930258;28;20022;-85
2022/01/12 06:04:50;;;;;;;11.02;6.10;;;2.70;99.90;;;;;;4941831;28;20046;-84
2022/01/12 06:07:15;;;;;;;11.18;5.93;;;2.70;99.90;;;;;;4927328;28;20124;-85
2022/01/12 06:09:41;;;;;;;11.23;4.88;;;2.70;99.90;;;;;;4939384;28;20035;-85
2022/01/12 06:12:07;;;;;;;9.65;5.78;;;2.70;99.90;;;;;;4920891;28;20484;-85
2022/01/12 06:14:33;;;;;;;14.48;5.90;;;2.70;99.90;;;;;;4923820;28;20621;-86
2022/01/12 06:16:58;;;;;;;9.88;5.65;;;2.70;99.90;;;;;;4905571;28;20028;-86
2022/01/12 06:19:24;;;;;;;12.93;6.28;;;2.70;99.90;;;;;;4927871;28;20105;-85
2022/01/12 06:21:49;;;;;;;11.10;5.50;;;2.70;99.90;;;;;;4924125;28;20042;-85
2022/01/12 06:24:15;;;;;;;12.60;7.13;;;2.70;99.90;;;;;;4938727;28;20729;-86
2022/01/12 06:26:42;;;;;;;9.32;6.13;;;2.70;99.90;;;;;;4926296;28;20051;-86
2022/01/12 06:31:36;;;;;;;13.52;7.22;;;2.70;99.90;;;;;;4940535;28;20035;-85
2022/01/12 06:34:02;;;;;;;12.60;7.00;;;2.70;99.90;;;;;;4927340;28;20488;-85
2022/01/12 06:36:27;;;;;;;13.00;7.20;;;2.70;99.90;;;;;;4929907;28;20043;-85
2022/01/12 06:38:53;;;;;;;11.95;5.82;;;2.70;99.90;;;;;;4914014;28;20066;-85
2022/01/12 06:41:19;;;;;;;11.57;7.10;;;2.70;99.90;;;;;;4927857;28;20031;-85
2022/01/12 06:43:44;;;;;;;13.43;5.47;;;2.70;99.90;;;;;;4926864;28;20039;-85
2022/01/12 06:46:10;;;;;;;10.00;6.10;;;2.70;99.90;;;;;;4929449;28;20143;-85
2022/01/12 06:48:38;;;;;;;11.43;5.68;;;2.70;99.90;;;;;;4905919;28;20492;-84
2022/01/12 06:51:04;;;;;;;13.68;6.57;;;2.70;99.90;;;;;;4909660;28;20082;-86
2022/01/12 06:53:32;;;;;;;12.70;7.00;;;2.70;99.90;;;;;;4903427;28;20074;-85
2022/01/12 06:55:58;;;;;;;12.85;6.15;;;2.70;99.90;;;;;;4911017;28;20036;-84
2022/01/12 06:58:23;;;;;;;14.52;7.68;;;2.80;99.90;;;;;;4938283;28;20031;-83
2022/01/12 07:00:49;;;;;;;8.80;6.40;;;2.80;99.90;;;;;;4931019;28;20035;-83
2022/01/12 07:03:14;;;;;;;14.32;8.07;;;2.80;99.90;;;;;;4934381;28;20035;-83
2022/01/12 07:05:40;;;;;;;14.38;6.03;;;2.90;99.90;;;;;;4945358;28;25377;-83
2022/01/12 07:08:06;;;;;;;11.32;6.15;;;2.90;99.90;;;;;;4919683;28;20414;-84
2022/01/12 07:10:34;;;;;;;13.60;5.60;;;2.90;99.90;;;;;;4930887;28;20129;-84
2022/01/12 07:13:02;;;;;;;12.48;7.55;;;2.90;99.90;;;;;;4905792;29;20039;-84
2022/01/12 07:15:28;;;;;;;12.40;6.43;;;2.90;99.90;;;;;;4932238;28;20042;-84
2022/01/12 07:17:53;;;;;;;16.00;8.07;;;2.90;99.90;;;;;;4931546;28;20043;-84
2022/01/12 07:20:19;;;;;;;15.40;7.60;;;2.90;99.90;;;;;;4930931;28;20035;-84
2022/01/12 07:22:48;;;;;;;12.80;6.70;;;2.90;99.90;;;;;;4928250;28;20066;-84
2022/01/12 07:25:13;;;;;;;10.98;6.30;;;3.00;99.90;;;;;;4934825;28;20036;-84
2022/01/12 07:27:40;;;;;;;9.95;6.25;;;2.80;99.90;;;;;;4925978;28;20109;-84
2022/01/12 07:30:06;;;;;;;15.43;8.48;;;2.80;99.90;;;;;;4932866;28;20034;-84
2022/01/12 07:32:32;;;;;;;9.77;6.18;;;2.90;99.90;;;;;;4929069;28;20034;-84
2022/01/12 07:34:58;;;;;;;16.63;8.00;;;2.80;99.90;;;;;;4945505;28;20032;-83
2022/01/12 07:37:26;;;;;;;15.43;7.63;;;2.80;99.90;;;;;;4933455;28;20053;-84
2022/01/12 07:39:52;;;;;;;16.27;8.60;;;2.80;99.90;;;;;;4943685;28;20075;-84
2022/01/12 07:42:18;;;;;;;12.15;5.90;;;2.80;99.90;;;;;;4931951;28;20098;-84
2022/01/12 07:44:44;;;;;;;11.20;6.65;;;2.80;99.90;;;;;;4941562;28;20475;-84
2022/01/12 07:47:10;;;;;;;12.70;7.85;;;2.80;99.90;;;;;;4929496;28;20031;-83
2022/01/12 07:49:36;;;;;;;12.45;7.10;;;2.90;99.90;;;;;;4937519;28;20043;-84
2022/01/12 07:52:04;;;;;;;15.07;9.65;;;2.80;99.90;;;;;;4923137;28;20027;-84
2022/01/12 07:54:29;;;;;;;14.75;8.52;;;2.80;99.90;;;;;;4941732;28;20113;-84
2022/01/12 07:56:55;;;;;;;14.10;8.50;;;2.90;99.90;;;;;;4929602;28;20500;-84
2022/01/12 07:59:20;;;;;;;13.15;6.95;;;2.80;99.90;;;;;;4921983;28;20031;-84
2022/01/12 08:01:46;;;;;;;10.38;6.18;;;2.80;99.90;;;;;;4941081;28;20031;-84
2022/01/12 08:04:12;;;;;;;17.50;9.05;;;2.80;99.90;;;;;;4937706;28;20482;-85
2022/01/12 08:06:37;;;;;;;13.70;7.55;;;2.90;99.90;;;;;;4932824;28;20034;-84
2022/01/12 08:09:07;;;;;;;13.40;7.85;;;2.90;99.90;;;;;;4924464;28;20050;-84
2022/01/12 08:11:33;;;;;;;13.88;7.28;;;2.90;99.90;;;;;;4928574;28;20126;-84
2022/01/12 08:13:59;;;;;;;11.43;7.38;;;2.90;99.90;;;;;;4920209;28;20126;-85
2022/01/12 08:16:24;;;;;;;15.65;7.55;;;2.90;99.90;;;;;;4931387;28;20035;-84
2022/01/12 08:18:50;;;;;;;9.57;5.07;;;2.90;99.90;;;;;;4930204;28;20384;-84
2022/01/12 08:21:17;;;;;;;13.70;8.40;;;3.00;99.90;;;;;;4915988;28;20050;-85
2022/01/12 08:23:42;;;;;;;14.60;6.25;;;3.00;99.90;;;;;;4941990;28;20050;-84
2022/01/12 08:26:08;;;;;;;17.00;8.98;;;2.90;99.90;;;;;;4925106;28;20050;-84
2022/01/12 08:28:41;;;;;;;22.33;9.85;;;3.00;99.90;;;;;;4924515;28;20093;-84
2022/01/12 08:31:06;;;;;;;20.05;9.23;;;2.90;99.90;;;;;;4932373;28;20039;-84
2022/01/12 08:33:33;;;;;;;14.30;7.75;;;3.00;99.90;;;;;;4934386;28;20035;-84
2022/01/12 08:35:59;;;;;;;15.50;7.90;;;3.00;99.90;;;;;;4902495;28;20439;-84
2022/01/12 08:38:26;;;;;;;18.30;8.75;;;3.00;99.90;;;;;;4944666;28;20035;-84
2022/01/12 08:40:52;;;;;;;23.30;8.98;;;3.00;99.90;;;;;;4902347;29;20066;-84
2022/01/12 08:43:18;;;;;;;14.75;8.02;;;3.00;99.90;;;;;;4902016;28;20070;-84
2022/01/12 08:45:43;;;;;;;20.80;9.13;;;3.00;99.90;;;;;;4925416;28;20381;-84
2022/01/12 08:48:09;;;;;;;24.30;10.40;;;3.00;99.90;;;;;;4943771;28;20487;-84
2022/01/12 08:50:34;;;;;;;20.77;9.30;;;3.10;99.90;;;;;;4927326;28;20479;-84
2022/01/12 08:53:08;;;;;;;18.50;8.65;;;3.10;99.90;;;;;;4943717;28;20027;-84
2022/01/12 08:55:33;;;;;;;23.58;12.07;;;3.10;99.90;;;;;;4929359;28;20500;-84
2022/01/12 08:57:59;;;;;;;14.98;8.35;;;3.10;99.90;;;;;;4941324;28;20035;-84
2022/01/12 09:00:25;;;;;;;17.70;8.75;;;3.10;99.90;;;;;;4924342;28;20043;-84
2022/01/12 09:02:50;;;;;;;23.92;12.15;;;3.20;99.90;;;;;;4934003;28;20039;-84
2022/01/12 09:05:16;;;;;;;23.38;9.95;;;3.10;99.90;;;;;;4938831;28;20047;-84
2022/01/12 09:07:42;;;;;;;25.17;11.60;;;3.20;99.90;;;;;;4936924;28;20376;-84
2022/01/12 09:10:08;;;;;;;19.92;10.18;;;3.20;99.90;;;;;;4929986;28;20034;-85
2022/01/12 09:12:36;;;;;;;10.20;3.95;;;3.20;99.90;;;;;;4957354;28;20035;-84
2022/01/12 09:15:05;;;;;;;20.17;11.60;;;3.20;99.90;;;;;;4940084;28;20042;-84
2022/01/12 09:17:31;;;;;;;20.08;10.70;;;3.30;99.90;;;;;;4916258;28;20061;-84
2022/01/12 09:19:57;;;;;;;28.23;12.77;;;3.30;99.90;;;;;;4931029;28;20074;-84
2022/01/12 09:22:24;;;;;;;18.40;10.20;;;3.30;99.90;;;;;;4929257;28;22041;-84
2022/01/12 09:24:50;;;;;;;22.50;9.60;;;3.30;99.90;;;;;;4927771;28;20038;-84
2022/01/12 09:27:17;;;;;;;28.33;11.68;;;3.40;99.90;;;;;;4916746;28;20798;-84
2022/01/12 09:29:42;;;;;;;21.13;10.32;;;3.30;99.90;;;;;;4934436;28;20113;-85
2022/01/12 09:32:08;;;;;;;21.10;10.00;;;3.40;99.90;;;;;;4926068;28;20122;-85
2022/01/12 09:34:34;;;;;;;25.17;13.73;;;3.40;99.90;;;;;;4929433;28;20069;-84
2022/01/12 09:37:00;;;;;;;22.45;11.35;;;3.50;99.90;;;;;;4930200;28;20062;-84
2022/01/12 09:39:25;;;;;;;19.17;10.23;;;3.50;99.90;;;;;;4933517;28;20038;-84
2022/01/12 09:41:51;;;;;;;23.67;12.02;;;3.50;99.90;;;;;;4928811;28;20046;-84
2022/01/12 09:44:17;;;;;;;27.77;12.52;;;3.50;99.90;;;;;;4934503;28;20571;-84
2022/01/12 09:46:43;;;;;;;24.75;11.38;;;3.60;99.90;;;;;;4927022;28;21094;-84
2022/01/12 09:49:08;;;;;;;29.65;12.32;;;3.60;99.90;;;;;;4928732;28;20031;-84
2022/01/12 09:51:34;;;;;;;26.55;9.90;;;3.50;99.90;;;;;;4940726;28;20035;-83
2022/01/12 09:54:00;;;;;;;25.52;10.90;;;3.60;99.90;;;;;;4944898;28;20032;-84
2022/01/12 09:56:28;;;;;;;29.85;11.52;;;3.60;99.90;;;;;;4926724;28;20039;-83
2022/01/12 09:58:55;;;;;;;36.35;16.15;;;3.70;99.90;;;;;;4927884;28;20591;-84
2022/01/12 10:01:28;;;;;;;36.10;16.17;;;3.80;99.90;;;;;;4926464;28;20034;-84
2022/01/12 10:04:05;;;;;;;37.30;14.70;;;3.80;99.90;;;;;;4926756;28;20031;-84
2022/01/12 10:06:34;;;;;;;35.53;15.15;;;3.90;99.90;;;;;;4913019;28;20031;-84
2022/01/12 10:09:00;;;;;;;26.42;13.35;;;3.90;99.90;;;;;;4941281;28;20098;-84
2022/01/12 10:11:26;;;;;;;30.73;13.32;;;4.00;99.90;;;;;;4941607;28;20499;-84
2022/01/12 10:13:58;;;;;;;30.42;12.30;;;4.00;99.90;;;;;;4931659;28;20395;-84
2022/01/12 10:16:26;;;;;;;38.00;15.43;;;4.00;99.90;;;;;;4916223;28;20039;-84
2022/01/12 10:18:57;;;;;;;28.75;13.05;;;4.10;99.90;;;;;;4943013;28;20567;-85
2022/01/12 10:21:40;;;;;;;26.08;12.32;;;4.00;99.90;;;;;;4909971;28;20058;-85
2022/01/12 10:24:08;;;;;;;30.25;12.57;;;4.20;99.90;;;;;;4916069;28;20117;-85
2022/01/12 10:26:36;;;;;;;27.98;11.30;;;4.20;99.90;;;;;;4928877;28;20039;-84
2022/01/12 10:29:07;;;;;;;30.88;13.07;;;4.30;99.90;;;;;;4929014;28;20476;-85
2022/01/12 10:31:55;;;;;;;21.77;9.35;;;4.40;99.90;;;;;;4939800;28;20031;-85
2022/01/12 10:34:26;;;;;;;31.10;12.75;;;4.40;99.90;;;;;;4932034;28;20097;-85
2022/01/12 10:36:53;;;;;;;25.85;11.40;;;4.40;99.90;;;;;;4957382;28;20122;-85
2022/01/12 10:39:18;;;;;;;27.05;11.45;;;4.50;99.90;;;;;;4928427;28;20034;-85
2022/01/12 10:42:01;;;;;;;32.00;14.65;;;4.50;99.90;;;;;;4939068;28;20039;-85
2022/01/12 10:44:32;;;;;;;27.35;10.93;;;4.50;99.90;;;;;;4944609;28;20073;-85
2022/01/12 10:47:04;;;;;;;32.00;13.40;;;4.50;99.90;;;;;;4910326;28;20126;-85
2022/01/12 10:49:30;;;;;;;34.08;15.60;;;4.50;99.90;;;;;;4941302;28;20027;-85
2022/01/12 10:51:56;;;;;;;34.33;14.73;;;4.50;99.90;;;;;;4941274;28;20122;-85
2022/01/12 10:54:22;;;;;;;40.97;18.02;;;4.60;99.90;;;;;;4944249;28;20478;-85
2022/01/12 10:56:47;;;;;;;39.22;15.45;;;4.70;99.90;;;;;;4938366;28;20035;-85
2022/01/12 10:59:17;;;;;;;44.30;17.65;;;4.70;99.90;;;;;;4896701;28;20035;-85
2022/01/12 11:01:42;;;;;;;38.20;14.95;;;4.70;99.90;;;;;;4922204;28;20396;-86
2022/01/12 11:04:09;;;;;;;40.17;15.80;;;4.70;99.90;;;;;;4928143;28;20035;-85
2022/01/12 11:06:34;;;;;;;50.85;19.42;;;4.60;99.90;;;;;;4926678;28;20034;-85
2022/01/12 11:09:00;;;;;;;32.60;14.00;;;4.70;99.90;;;;;;4929668;28;20058;-87
2022/01/12 11:11:26;;;;;;;35.67;15.98;;;4.60;99.90;;;;;;4912026;28;20071;-85
2022/01/12 11:13:54;;;;;;;44.03;17.02;;;4.70;99.90;;;;;;4942505;28;20154;-85
2022/01/12 11:16:24;;;;;;;32.80;15.13;;;4.80;99.90;;;;;;4881280;28;20066;-85
2022/01/12 11:18:52;;;;;;;29.92;12.63;;;4.80;99.90;;;;;;4898529;28;20527;-85
2022/01/12 11:21:20;;;;;;;33.38;13.82;;;4.80;99.90;;;;;;4924651;28;20035;-85
2022/01/12 11:23:46;;;;;;;35.53;13.98;;;4.80;99.90;;;;;;4951463;28;20023;-85
2022/01/12 11:26:13;;;;;;;40.92;15.95;;;4.70;99.90;;;;;;4938433;28;20047;-85
2022/01/12 11:28:39;;;;;;;39.05;15.38;;;4.60;99.90;;;;;;4929775;28;20058;-86
2022/01/12 11:31:05;;;;;;;37.95;14.02;;;4.80;99.90;;;;;;4937946;28;20493;-86
2022/01/12 11:33:37;;;;;;;45.67;17.42;;;4.80;99.90;;;;;;4927436;28;20126;-86
2022/01/12 11:36:26;;;;;;;60.25;19.92;;;5.00;99.90;;;;;;4911556;28;20126;-85
2022/01/12 11:39:08;;;;;;;49.47;19.40;;;5.10;99.90;;;;;;4913663;28;20035;-86
2022/01/12 11:41:35;;;;;;;55.28;19.90;;;5.10;99.90;;;;;;4918253;28;20438;-86
2022/01/12 11:44:13;;;;;;;59.38;23.20;;;5.20;99.90;;;;;;4930720;28;20393;-86
2022/01/12 11:46:59;;;;;;;56.90;20.65;;;5.20;99.90;;;;;;4908281;28;20023;-86
2022/01/12 11:49:34;;;;;;;68.82;24.25;;;5.20;99.90;;;;;;4932126;28;20086;-86
2022/01/12 11:52:12;;;;;;;74.47;25.93;;;5.20;99.90;;;;;;4927340;28;20035;-86
2022/01/12 11:54:38;;;;;;;47.22;17.73;;;5.30;99.90;;;;;;4923445;28;20271;-86
2022/01/12 11:57:06;;;;;;;55.08;17.73;;;5.30;99.90;;;;;;4922652;28;20035;-85
2022/01/12 11:59:50;;;;;;;71.55;26.60;;;5.20;99.90;;;;;;4944652;28;20063;-86
2022/01/12 12:02:16;;;;;;;54.45;19.45;;;5.30;99.90;;;;;;4934055;28;20046;-86
2022/01/12 12:04:58;;;;;;;63.88;23.20;;;5.30;99.90;;;;;;4934341;28;20038;-86
2022/01/12 12:07:24;;;;;;;68.28;23.95;;;5.30;99.90;;;;;;4921018;28;21001;-87
2022/01/12 12:09:56;;;;;;;78.63;26.05;;;5.40;99.90;;;;;;4920259;28;20043;-87
2022/01/12 12:12:26;;;;;;;63.42;21.42;;;5.40;99.90;;;;;;4934818;28;20034;-87
2022/01/12 12:14:55;;;;;;;72.57;24.92;;;5.40;99.90;;;;;;4912965;28;20035;-87
2022/01/12 12:17:26;;;;;;;53.78;20.45;;;5.40;99.90;;;;;;4929786;28;20031;-87
2022/01/12 12:19:52;;;;;;;50.17;18.65;;;5.50;99.90;;;;;;4919982;28;20028;-87
2022/01/12 12:22:22;;;;;;;61.85;23.33;;;5.40;99.90;;;;;;4926874;28;20797;-86
2022/01/12 12:24:54;;;;;;;56.33;17.60;;;5.40;99.90;;;;;;4931635;28;20063;-87
2022/01/12 12:27:20;;;;;;;60.85;22.65;;;5.40;99.90;;;;;;4921521;28;20107;-87
2022/01/12 12:29:50;;;;;;;79.63;27.75;;;5.50;99.90;;;;;;4907431;28;20037;-87
2022/01/12 12:32:16;;;;;;;70.10;26.48;;;5.60;99.90;;;;;;4898490;28;20450;-87
2022/01/12 12:34:43;;;;;;;66.18;25.27;;;5.60;99.90;;;;;;4900975;28;20110;-87
2022/01/12 12:37:10;;;;;;;62.63;22.88;;;5.70;99.90;;;;;;4923092;28;20080;-87
2022/01/12 12:39:40;;;;;;;58.65;21.08;;;5.70;99.90;;;;;;4909643;28;20439;-87
2022/01/12 12:42:16;;;;;;;73.85;26.05;;;5.70;99.90;;;;;;4935988;28;20035;-87
2022/01/12 12:44:42;;;;;;;82.65;28.52;;;5.70;99.90;;;;;;4925602;28;20042;-87
2022/01/12 12:47:15;;;;;;;83.97;29.17;;;5.80;99.90;;;;;;4916788;28;20035;-87
2022/01/12 12:49:54;;;;;;;80.00;27.48;;;5.70;99.90;;;;;;4898208;28;20032;-87
2022/01/12 12:52:36;;;;;;;44.70;17.60;;;5.70;99.90;;;;;;4938962;28;20607;-87
2022/01/12 12:55:04;;;;;;;74.70;25.10;;;5.60;99.90;;;;;;4939277;28;20110;-87
2022/01/12 12:57:30;;;;;;;65.45;22.10;;;5.60;99.90;;;;;;4930209;28;20035;-87
2022/01/12 13:00:11;;;;;;;54.13;21.35;;;5.60;99.90;;;;;;4916571;28;20422;-87
2022/01/12 13:02:47;;;;;;;55.50;20.98;;;5.60;99.90;;;;;;4958163;28;20553;-87
2022/01/12 13:05:15;;;;;;;78.63;27.40;;;5.60;99.90;;;;;;4596625;28;10000032;-87
2022/01/12 13:07:42;;;;;;;46.75;18.15;;;5.70;99.90;;;;;;4922936;28;20062;-87
2022/01/12 13:10:14;;;;;;;62.70;25.10;;;5.60;99.90;;;;;;4911203;28;20130;-88
2022/01/12 13:12:41;;;;;;;63.92;23.10;;;5.60;99.90;;;;;;4940572;28;21042;-87
2022/01/12 13:15:10;;;;;;;68.28;25.95;;;5.60;99.90;;;;;;4942489;28;20125;-87
2022/01/12 13:17:41;;;;;;;49.70;19.02;;;5.60;99.90;;;;;;4957428;28;20180;-87
2022/01/12 13:22:38;;;;;;;74.13;26.90;;;5.60;99.90;;;;;;4938944;28;20506;-87
2022/01/12 13:25:08;;;;;;;55.83;23.25;;;5.70;99.90;;;;;;4931925;28;20035;-87
2022/01/12 13:27:35;;;;;;;58.70;21.77;;;5.70;99.90;;;;;;4911868;28;20752;-87
2022/01/12 13:30:00;;;;;;;86.75;29.60;;;5.60;99.90;;;;;;4942930;28;20097;-87
2022/01/12 13:32:26;;;;;;;77.53;27.88;;;5.70;99.90;;;;;;4935396;28;20039;-87
2022/01/12 13:34:56;;;;;;;71.55;26.77;;;5.80;99.90;;;;;;4939879;28;20043;-87
2022/01/12 13:37:22;;;;;;;88.05;29.27;;;5.70;99.90;;;;;;4927086;28;20625;-87
2022/01/12 13:40:01;;;;;;;81.53;29.42;;;5.70;99.90;;;;;;4939836;28;20031;-87
2022/01/12 13:42:28;;;;;;;73.60;26.38;;;5.70;99.90;;;;;;4925697;29;20055;-87
2022/01/12 13:45:08;;;;;;;76.55;28.00;;;5.80;99.90;;;;;;4916299;28;20034;-87
2022/01/12 13:47:36;;;;;;;84.55;29.08;;;5.70;99.90;;;;;;4905397;28;20130;-87
2022/01/12 13:50:11;;;;;;;62.70;23.63;;;5.60;99.90;;;;;;4929721;28;20035;-86
2022/01/12 13:52:37;;;;;;;67.10;25.27;;;5.60;99.90;;;;;;4927635;28;20031;-87
2022/01/12 13:55:12;;;;;;;53.20;21.38;;;5.60;99.90;;;;;;4928706;28;20030;-87
2022/01/12 13:57:38;;;;;;;57.00;22.53;;;5.60;99.90;;;;;;4910283;28;20042;-87
2022/01/12 14:00:06;;;;;;;54.60;21.67;;;5.60;99.90;;;;;;4928722;28;20039;-87
2022/01/12 14:02:31;;;;;;;68.30;25.35;;;5.70;99.90;;;;;;4924762;28;20031;-87
2022/01/12 14:05:07;;;;;;;59.10;22.77;;;5.60;99.90;;;;;;4926940;28;20546;-87
2022/01/12 14:07:36;;;;;;;54.47;23.65;;;5.60;99.90;;;;;;4941277;28;20046;-87
2022/01/12 14:10:03;;;;;;;58.50;23.20;;;5.60;99.90;;;;;;4938219;28;20134;-87
2022/01/12 14:12:28;;;;;;;46.85;18.70;;;5.70;99.90;;;;;;4932388;28;20049;-87